Disautel, Washington
Current Conditions -  °F | °C
As of 4:53 PM on Wednesday 17 Dec 2014 (Local Time) from KOMK Reporting Station
Haze Haze  
Wind Chill: 33°   Ceiling: 2600
Heat Index: 33°   Visibility: 1.7mi
Dew Point: 31°   Wind: 0mph
Humidity: 92%   Direction: NA
Pressure: 29.95"   Gusts: NA
Location:  48.4274°N, 119.524°W
Report Text: KOMK 180053Z AUTO 00000KT 1 3/4SM BR FEW002 OVC026 01/M01 A2995 RMK AO2 SLP157 T00061006
Loading
Personal Weather Stations






























Interactive Weather Map New forecast layout! Learn more

10-Day Weather Forecast

Advertisements
Track Severe Weather on mobile